ADDS METAR Data INFO
IDs: Format: Raw Decoded Include TAF

Data at: 0426 UTC 24 Apr 2018

KCXO 240353Z AUTO 00000KT 10SM CLR 13/13 A3004 RMK AO2 SLP170 T01330133
KCXO 240253Z AUTO 00000KT 10SM CLR 14/14 A3003 RMK AO2 SLP167 T01440139 53019
KCXO 240153Z AUTO 00000KT 10SM CLR 16/14 A3001 RMK AO2 SLP160 T01560144
KCXO 240053Z 00000KT 10SM CLR 19/14 A2998 RMK AO2 SLP151 T01940139
KCXO 232353Z 32007KT 10SM CLR 23/12 A2997 RMK AO2 SLP148 T02330122 10256 20233 56008
KCXO 232253Z 29009KT 10SM CLR 24/12 A2998 RMK AO2 SLP149 T02440122
KCXO 232153Z 30008G16KT 10SM CLR 25/12 A2998 RMK AO2 SLP149 T02500122
KCXO 232053Z 30006G20KT 10SM CLR 25/12 A3000 RMK AO2 SLP156 T02500117 58020
KCXO 231953Z 31012G18KT 290V350 10SM CLR 24/11 A3003 RMK AO2 SLP165 T02440111
KCXO 231853Z 30011G16KT 10SM CLR 24/11 A3005 RMK AO2 SLP172 T02440111
KCXO 231753Z 29015G20KT 10SM CLR 23/11 A3006 RMK AO2 SLP176 T02330111 10233 20072 58012
KCXO 231653Z 28012KT 10SM CLR 22/12 A3008 RMK AO2 SLP183 T02170122
KCXO 231553Z 27010KT 10SM CLR 20/12 A3010 RMK AO2 SLP189 T02000117
KCXO 231453Z 32008KT 10SM CLR 18/11 A3009 RMK AO2 SLP188 T01830111 51010
KCXO 231353Z 30005KT 10SM CLR 16/12 A3009 RMK AO2 SLP187 T01610117
KCXO 231253Z 00000KT 10SM CLR 10/10 A3008 RMK AO2 SLP186 T01000100
KCXO 231153Z 00000KT 10SM CLR 07/07 A3006 RMK AO2 SLP178 T00720072 10106 20067 53013
KCXO 231053Z 00000KT 10SM CLR 08/08 A3003 RMK AO2 SLP167 T00780078
KCXO 230953Z AUTO 00000KT 10SM CLR 08/08 A3001 RMK AO2 SLP162 T00780078
KCXO 230853Z AUTO 00000KT 10SM CLR 08/08 A3002 RMK AO2 SLP164 T00830083 55003
KCXO 230753Z AUTO 00000KT 10SM CLR 08/08 A3002 RMK AO2 SLP163 T00830083
KCXO 230653Z AUTO 00000KT 10SM CLR 09/09 A3003 RMK AO2 SLP167 T00940094
KCXO 230553Z AUTO 00000KT 10SM CLR 11/11 A3003 RMK AO2 SLP169 T01060106 10206 20100 402170100 58001
KCXO 230453Z AUTO 00000KT 10SM CLR 11/11 A3004 RMK AO2 SLP170 T01060106
KCXO 230353Z AUTO 32004KT 10SM CLR 11/11 A3005 RMK AO2 SLP173 T01060106
KCXO 230253Z AUTO 00000KT 10SM CLR 12/12 A3004 RMK AO2 SLP170 T01220122 53016
KCXO 230153Z AUTO 32003KT 10SM CLR 13/12 A3001 RMK AO2 SLP163 T01330122
KCXO 230053Z 31004KT 10SM CLR 17/12 A3000 RMK AO2 SLP155 T01670117
KCXO 222358Z 32008KT 10SM CLR 20/11 A2999 RMK AO2 T02000111
KCXO 222353Z AUTO 32008KT 10SM CLR 21/11 A2999 RMK AO2 SLP153 T02060111 10217 20167 55007
KCXO 222253Z 28010G17KT 10SM CLR 22/11 A2999 RMK AO2 SLP152 T02170111
KCXO 222153Z 30011KT 10SM FEW042 21/12 A2999 RMK AO2 SLP153 T02110117
KCXO 222053Z 30010G20KT 270V330 10SM CLR 21/12 A3001 RMK AO2 SLP160 T02110117 56020
KCXO 221953Z 31011G20KT 10SM FEW033 20/12 A3003 RMK AO2 SLP166 T02000122
KCXO 221903Z 32009G18KT 10SM SCT027 19/12 A3005 RMK AO2 T01890122
KCXO 221853Z 29013KT 10SM BKN027 19/13 A3005 RMK AO2 SLP173 T01890128
KCXO 221846Z 31010G18KT 10SM SCT025 19/13 A3005 RMK AO2 T01890128
KCXO 221753Z 33015KT 10SM OVC021 17/12 A3007 RMK AO2 SLP180 T01670122 10167 20128 50009
KCXO 221653Z 33011G19KT 10SM OVC021 16/12 A3008 RMK AO2 SLP183 T01560117